createdAt,value
2016-11-07T00:00:27.215Z,0
2016-11-07T00:01:07.878Z,0
2016-11-07T00:01:48.580Z,0
2016-11-07T00:02:29.217Z,0
2016-11-07T00:03:09.905Z,0
2016-11-07T00:03:50.594Z,0
2016-11-07T00:04:31.278Z,0
2016-11-07T00:05:11.958Z,0
2016-11-07T00:05:52.594Z,0
2016-11-07T00:06:33.310Z,0
2016-11-07T00:07:14.039Z,0
2016-11-07T00:07:54.694Z,0
2016-11-07T00:08:35.386Z,0
2016-11-07T00:09:16.059Z,0
2016-11-07T00:09:56.712Z,0
2016-11-07T00:10:37.431Z,0
2016-11-07T00:11:18.130Z,0
2016-11-07T00:11:58.804Z,0
2016-11-07T00:12:39.521Z,0
2016-11-07T00:13:20.242Z,0
2016-11-07T00:14:00.920Z,0
2016-11-07T00:14:41.587Z,0
2016-11-07T00:15:22.276Z,0
2016-11-07T00:16:02.945Z,0
2016-11-07T00:16:43.690Z,0
2016-11-07T00:17:24.416Z,0
2016-11-07T00:18:05.090Z,0
2016-11-07T00:18:45.788Z,0
2016-11-07T00:19:26.479Z,0
2016-11-07T00:20:07.193Z,0
2016-11-07T00:20:47.923Z,0
2016-11-07T00:21:28.598Z,0
2016-11-07T00:22:09.292Z,0
2016-11-07T00:22:49.996Z,0
2016-11-07T00:23:30.713Z,0
2016-11-07T00:24:11.369Z,0
2016-11-07T00:24:52.054Z,0
2016-11-07T00:25:32.725Z,0
2016-11-07T00:26:13.466Z,0
2016-11-07T00:26:54.135Z,0
2016-11-07T00:27:34.842Z,0
2016-11-07T00:28:15.547Z,0
2016-11-07T00:28:56.198Z,0
2016-11-07T00:29:36.875Z,0
2016-11-07T00:30:17.569Z,0
2016-11-07T00:30:58.200Z,0
2016-11-07T00:31:38.885Z,0
2016-11-07T00:32:19.572Z,0
2016-11-07T00:33:00.267Z,0
2016-11-07T00:33:41.528Z,0
2016-11-07T00:34:21.693Z,0
2016-11-07T00:35:02.422Z,0
2016-11-07T00:35:43.076Z,0
2016-11-07T00:36:23.756Z,0
2016-11-07T00:37:04.424Z,0
2016-11-07T00:37:45.075Z,0
2016-11-07T00:38:25.772Z,0
2016-11-07T00:39:06.493Z,0
2016-11-07T00:39:47.144Z,0
2016-11-07T00:40:27.801Z,0
2016-11-07T00:41:08.503Z,0
2016-11-07T00:41:49.191Z,0
2016-11-07T00:42:29.907Z,0
2016-11-07T00:43:10.547Z,0
2016-11-07T00:43:51.243Z,0
2016-11-07T00:44:31.860Z,0
2016-11-07T00:45:12.541Z,0
2016-11-07T00:45:53.239Z,0
2016-11-07T00:46:33.890Z,0
2016-11-07T00:47:14.530Z,0
2016-11-07T00:47:55.212Z,0
2016-11-07T00:48:35.891Z,0
2016-11-07T00:49:16.544Z,0
2016-11-07T00:49:57.267Z,0
2016-11-07T00:50:37.928Z,0
2016-11-07T00:51:18.640Z,0
2016-11-07T00:51:59.292Z,0
2016-11-07T00:52:39.991Z,0
2016-11-07T00:53:20.689Z,0
2016-11-07T00:54:01.420Z,0
2016-11-07T00:54:42.066Z,0
2016-11-07T00:55:22.711Z,0
2016-11-07T00:56:03.432Z,0
2016-11-07T00:56:44.139Z,0
2016-11-07T00:57:24.793Z,0
2016-11-07T00:58:05.480Z,0
2016-11-07T00:58:46.160Z,0
2016-11-07T00:59:26.826Z,0
2016-11-07T01:00:07.565Z,0
2016-11-07T01:00:48.233Z,0
2016-11-07T01:01:28.883Z,0
2016-11-07T01:02:09.588Z,0
2016-11-07T01:02:50.297Z,0
2016-11-07T01:03:30.962Z,0
2016-11-07T01:04:11.623Z,0
2016-11-07T01:04:52.292Z,0
2016-11-07T01:05:33.006Z,0
2016-11-07T01:06:13.685Z,0
2016-11-07T01:06:54.429Z,0
2016-11-07T01:07:35.120Z,0
2016-11-07T01:08:15.795Z,0
2016-11-07T01:08:56.486Z,0
2016-11-07T01:09:37.147Z,0
2016-11-07T01:10:17.831Z,0
2016-11-07T01:10:58.496Z,0
2016-11-07T01:11:39.201Z,0
2016-11-07T01:12:19.868Z,0
2016-11-07T01:13:00.548Z,0
2016-11-07T01:13:41.259Z,0
2016-11-07T01:14:21.933Z,0
2016-11-07T01:15:02.637Z,0
2016-11-07T01:15:43.365Z,0
2016-11-07T01:16:24.043Z,0
2016-11-07T01:17:04.752Z,0
2016-11-07T01:17:45.464Z,0
2016-11-07T01:18:26.125Z,0
2016-11-07T01:19:06.870Z,0
2016-11-07T01:19:47.563Z,0
2016-11-07T01:20:28.277Z,0
2016-11-07T01:21:08.973Z,0
2016-11-07T01:21:49.682Z,0
2016-11-07T01:22:30.351Z,0
2016-11-07T01:23:11.036Z,0
2016-11-07T01:23:51.719Z,0
2016-11-07T01:24:32.375Z,0
2016-11-07T01:25:13.061Z,0
2016-11-07T01:25:53.753Z,0
2016-11-07T01:26:34.442Z,0
2016-11-07T01:27:15.109Z,0
2016-11-07T01:27:55.763Z,0
2016-11-07T01:28:36.455Z,0
2016-11-07T01:29:17.130Z,0
2016-11-07T01:29:57.833Z,0
2016-11-07T01:30:38.549Z,0
2016-11-07T01:31:19.198Z,0
2016-11-07T01:31:59.883Z,0
2016-11-07T01:32:40.530Z,0
2016-11-07T01:33:21.221Z,0
2016-11-07T01:34:01.879Z,0
2016-11-07T01:34:42.569Z,0
2016-11-07T01:35:23.266Z,0
2016-11-07T01:36:03.936Z,0
2016-11-07T01:36:44.588Z,0
2016-11-07T01:37:25.307Z,0
2016-11-07T01:38:05.995Z,0
2016-11-07T01:38:46.621Z,0
2016-11-07T01:39:27.305Z,0
2016-11-07T01:40:08.012Z,0
2016-11-07T01:40:48.728Z,0
2016-11-07T01:41:29.428Z,0
2016-11-07T01:42:10.138Z,0
2016-11-07T01:42:50.801Z,0
2016-11-07T01:43:31.473Z,0
2016-11-07T01:44:12.162Z,0
2016-11-07T01:44:52.848Z,0
2016-11-07T01:45:33.542Z,0
2016-11-07T01:46:14.218Z,0
2016-11-07T01:46:54.893Z,0
2016-11-07T01:47:35.522Z,0
2016-11-07T01:48:16.164Z,0
2016-11-07T01:48:56.859Z,0
2016-11-07T01:49:37.557Z,0
2016-11-07T01:50:18.251Z,0
2016-11-07T01:50:58.964Z,0
2016-11-07T01:51:39.659Z,0
2016-11-07T01:52:20.296Z,0
2016-11-07T01:53:01.031Z,0
2016-11-07T01:53:41.700Z,0
2016-11-07T01:54:22.398Z,0
2016-11-07T01:55:03.085Z,0
2016-11-07T01:55:43.757Z,0
2016-11-07T01:56:24.487Z,0
2016-11-07T01:57:05.144Z,0
2016-11-07T01:57:45.855Z,0
2016-11-07T01:58:26.580Z,0
2016-11-07T01:59:07.228Z,0
2016-11-07T01:59:47.928Z,0
2016-11-07T02:00:28.667Z,0
2016-11-07T02:01:09.313Z,0
2016-11-07T02:01:50.037Z,0
2016-11-07T02:02:30.740Z,0
2016-11-07T02:03:11.405Z,0
2016-11-07T02:03:52.067Z,0
2016-11-07T02:04:32.747Z,0
2016-11-07T02:05:13.460Z,0
2016-11-07T02:05:54.142Z,0
2016-11-07T02:06:34.765Z,0
2016-11-07T02:07:15.476Z,0
2016-11-07T02:07:56.123Z,0
2016-11-07T02:08:36.856Z,0
2016-11-07T02:09:17.475Z,0
2016-11-07T02:09:58.102Z,0
2016-11-07T02:10:38.747Z,0
2016-11-07T02:11:19.417Z,0
2016-11-07T02:12:00.092Z,0
2016-11-07T02:12:40.723Z,0
2016-11-07T02:13:21.427Z,0
2016-11-07T02:14:02.123Z,0
2016-11-07T02:14:42.778Z,0
2016-11-07T02:15:23.475Z,0
2016-11-07T02:16:04.153Z,0
2016-11-07T02:16:44.839Z,0
2016-11-07T02:17:25.549Z,0
2016-11-07T02:18:06.261Z,0
2016-11-07T02:18:46.956Z,0
2016-11-07T02:19:27.621Z,0
2016-11-07T02:20:08.301Z,0
2016-11-07T02:20:49.000Z,0
2016-11-07T02:21:29.721Z,0
2016-11-07T02:22:10.388Z,0
2016-11-07T02:22:51.108Z,0
2016-11-07T02:23:31.793Z,0
2016-11-07T02:24:12.466Z,0
2016-11-07T02:24:53.173Z,0
2016-11-07T02:25:33.891Z,0
2016-11-07T02:26:14.593Z,0
2016-11-07T02:26:55.296Z,0
2016-11-07T02:27:35.939Z,0
2016-11-07T02:28:16.648Z,0
2016-11-07T02:28:57.311Z,0
2016-11-07T02:29:37.991Z,0
2016-11-07T02:30:18.704Z,0
2016-11-07T02:30:59.354Z,0
2016-11-07T02:31:40.035Z,0
2016-11-07T02:32:20.744Z,0
2016-11-07T02:33:01.356Z,0
2016-11-07T02:33:42.052Z,0
2016-11-07T02:34:22.683Z,0
2016-11-07T02:35:03.397Z,0
2016-11-07T02:35:44.059Z,0
2016-11-07T02:36:24.731Z,0
2016-11-07T02:37:05.432Z,0
2016-11-07T02:37:46.090Z,0
2016-11-07T02:38:26.791Z,0
2016-11-07T02:39:07.433Z,0
2016-11-07T02:39:48.130Z,0
2016-11-07T02:40:28.826Z,0
2016-11-07T02:41:09.504Z,0
2016-11-07T02:41:50.188Z,0
2016-11-07T02:42:30.880Z,0
2016-11-07T02:43:11.569Z,0
2016-11-07T02:43:52.267Z,0
2016-11-07T02:44:32.996Z,0
2016-11-07T02:45:13.705Z,0
2016-11-07T02:45:54.382Z,0
2016-11-07T02:46:35.038Z,0
2016-11-07T02:47:15.730Z,0
2016-11-07T02:47:56.426Z,0
2016-11-07T02:48:37.078Z,0
2016-11-07T02:49:17.779Z,0
2016-11-07T02:49:58.485Z,0
2016-11-07T02:50:39.161Z,0
2016-11-07T02:51:19.872Z,0
2016-11-07T02:52:00.555Z,0
2016-11-07T02:52:41.246Z,0
2016-11-07T02:53:21.883Z,0
2016-11-07T02:54:02.572Z,0
2016-11-07T02:54:43.228Z,0
2016-11-07T02:55:23.910Z,0
2016-11-07T02:56:04.571Z,0
2016-11-07T02:56:45.264Z,0
2016-11-07T02:57:25.952Z,0
2016-11-07T02:58:06.624Z,0
2016-11-07T02:58:47.343Z,0
2016-11-07T02:59:28.034Z,0
2016-11-07T03:00:08.724Z,0
2016-11-07T03:00:49.374Z,0
2016-11-07T03:01:30.080Z,0
2016-11-07T03:02:10.739Z,0
2016-11-07T03:02:51.415Z,0
2016-11-07T03:03:32.076Z,0
2016-11-07T03:04:12.792Z,0
2016-11-07T03:04:53.465Z,0
2016-11-07T03:05:34.162Z,0
2016-11-07T03:06:14.823Z,0
2016-11-07T03:06:55.479Z,0
2016-11-07T03:07:36.156Z,0
2016-11-07T03:08:16.847Z,0
2016-11-07T03:08:57.550Z,0
2016-11-07T03:09:38.283Z,0
2016-11-07T03:10:18.969Z,0
2016-11-07T03:10:59.704Z,0
2016-11-07T03:11:40.363Z,0
2016-11-07T03:12:21.136Z,0
2016-11-07T03:13:01.819Z,0
2016-11-07T03:13:42.504Z,0
2016-11-07T03:14:23.216Z,0
2016-11-07T03:15:03.862Z,0
2016-11-07T03:15:44.499Z,0
2016-11-07T03:16:25.225Z,0
2016-11-07T03:17:05.886Z,0
2016-11-07T03:17:46.577Z,0
2016-11-07T03:18:27.308Z,0
2016-11-07T03:19:07.972Z,0
2016-11-07T03:19:48.684Z,0
2016-11-07T03:20:29.402Z,0
2016-11-07T03:21:10.062Z,0
2016-11-07T03:21:50.771Z,0
2016-11-07T03:22:31.469Z,0
2016-11-07T03:23:12.188Z,0
2016-11-07T03:23:52.888Z,0
2016-11-07T03:24:33.604Z,0
2016-11-07T03:25:14.294Z,0
2016-11-07T03:25:54.985Z,0
2016-11-07T03:26:35.666Z,0
2016-11-07T03:27:16.323Z,0
2016-11-07T03:27:56.975Z,0
2016-11-07T03:28:37.680Z,0
2016-11-07T03:29:18.356Z,0
2016-11-07T03:29:59.026Z,0
2016-11-07T03:30:39.737Z,0
2016-11-07T03:31:20.476Z,0
2016-11-07T03:32:01.132Z,0
2016-11-07T03:32:41.862Z,0
2016-11-07T03:33:22.519Z,0
2016-11-07T03:34:04.131Z,0
2016-11-07T03:34:43.930Z,0
2016-11-07T03:35:24.599Z,0
2016-11-07T03:36:05.257Z,0
2016-11-07T03:36:45.930Z,0
2016-11-07T03:37:26.640Z,0
2016-11-07T03:38:07.378Z,0
2016-11-07T03:38:48.028Z,0
2016-11-07T03:39:28.705Z,0
2016-11-07T03:40:09.427Z,0
2016-11-07T03:40:50.095Z,0
2016-11-07T03:41:30.778Z,0
2016-11-07T03:42:11.478Z,0
2016-11-07T03:42:52.197Z,0
2016-11-07T03:43:32.842Z,0
2016-11-07T03:44:13.501Z,0
2016-11-07T03:44:54.235Z,0
2016-11-07T03:45:34.924Z,0
2016-11-07T03:46:15.645Z,0
2016-11-07T03:46:56.313Z,0
2016-11-07T03:47:37.007Z,0
2016-11-07T03:48:17.660Z,0
2016-11-07T03:48:58.380Z,0
2016-11-07T03:49:39.013Z,0
2016-11-07T03:50:19.694Z,0
2016-11-07T03:51:00.396Z,0
2016-11-07T03:51:41.058Z,0
2016-11-07T03:52:21.736Z,0
2016-11-07T03:53:02.421Z,0
2016-11-07T03:53:43.121Z,0
2016-11-07T03:54:23.731Z,0
2016-11-07T03:55:04.390Z,0
2016-11-07T03:55:45.126Z,0
2016-11-07T03:56:25.811Z,0
2016-11-07T03:57:06.506Z,0
2016-11-07T03:57:47.167Z,0
2016-11-07T03:58:27.902Z,0
2016-11-07T03:59:08.583Z,0
2016-11-07T03:59:49.247Z,0
2016-11-07T04:00:29.928Z,0
2016-11-07T04:01:10.582Z,0
2016-11-07T04:01:51.260Z,0
2016-11-07T04:02:31.943Z,0
2016-11-07T04:03:12.581Z,0
2016-11-07T04:03:53.267Z,0
2016-11-07T04:04:33.959Z,0
2016-11-07T04:05:14.678Z,0
2016-11-07T04:05:55.401Z,0
2016-11-07T04:06:36.065Z,0
2016-11-07T04:07:16.748Z,0
2016-11-07T04:07:57.400Z,0
2016-11-07T04:08:38.084Z,0
2016-11-07T04:09:18.767Z,0
2016-11-07T04:09:59.468Z,0
2016-11-07T04:10:40.125Z,0
2016-11-07T04:11:20.813Z,0
2016-11-07T04:12:01.477Z,0
2016-11-07T04:12:42.146Z,0
2016-11-07T04:13:22.819Z,0
2016-11-07T04:14:03.513Z,0
2016-11-07T04:14:44.221Z,0
2016-11-07T04:15:24.947Z,0
2016-11-07T04:16:05.657Z,0
2016-11-07T04:16:46.348Z,0
2016-11-07T04:17:27.034Z,0
2016-11-07T04:18:07.744Z,0
2016-11-07T04:18:48.407Z,0
2016-11-07T04:19:29.121Z,0
2016-11-07T04:20:09.805Z,0
2016-11-07T04:20:50.481Z,0
2016-11-07T04:21:31.189Z,0
2016-11-07T04:22:11.833Z,0
2016-11-07T04:22:52.492Z,0
2016-11-07T04:23:33.139Z,0
2016-11-07T04:24:13.830Z,0
2016-11-07T04:24:54.511Z,0
2016-11-07T04:25:35.159Z,0
2016-11-07T04:26:15.872Z,0
2016-11-07T04:26:56.557Z,0
2016-11-07T04:27:37.235Z,0
2016-11-07T04:28:17.929Z,0
2016-11-07T04:28:58.615Z,0
2016-11-07T04:29:39.323Z,0
2016-11-07T04:30:19.996Z,0
2016-11-07T04:31:00.718Z,0
2016-11-07T04:31:41.440Z,0
2016-11-07T04:32:22.132Z,0
2016-11-07T04:33:02.803Z,0
2016-11-07T04:33:43.490Z,0
2016-11-07T04:34:24.167Z,0
2016-11-07T04:35:04.855Z,0
2016-11-07T04:35:45.528Z,0
2016-11-07T04:36:26.160Z,0
2016-11-07T04:37:06.911Z,0
2016-11-07T04:37:47.609Z,0
2016-11-07T04:38:28.300Z,0
2016-11-07T04:39:09.007Z,0
2016-11-07T04:39:49.758Z,0
2016-11-07T04:40:30.421Z,0
2016-11-07T04:41:11.101Z,0
2016-11-07T04:41:51.744Z,0
2016-11-07T04:42:32.477Z,0
2016-11-07T04:43:13.169Z,0
2016-11-07T04:43:53.900Z,0
2016-11-07T04:44:34.579Z,0
2016-11-07T04:45:15.263Z,0
2016-11-07T04:45:55.930Z,0
2016-11-07T04:46:36.650Z,0
2016-11-07T04:47:17.316Z,0
2016-11-07T04:47:58.032Z,0
2016-11-07T04:48:38.708Z,0
2016-11-07T04:49:19.367Z,0
2016-11-07T04:50:00.039Z,0
2016-11-07T04:50:40.714Z,0
2016-11-07T04:51:21.389Z,0
2016-11-07T04:52:02.084Z,0
2016-11-07T04:52:42.801Z,0
2016-11-07T04:53:23.480Z,0
2016-11-07T04:54:04.160Z,0
2016-11-07T04:54:44.894Z,0
2016-11-07T04:55:25.607Z,0
2016-11-07T04:56:06.252Z,0
2016-11-07T04:56:46.958Z,0
2016-11-07T04:57:27.653Z,0
2016-11-07T04:58:08.304Z,0
2016-11-07T04:58:48.966Z,0
2016-11-07T04:59:29.692Z,0
2016-11-07T05:00:10.388Z,0
2016-11-07T05:00:51.063Z,0
2016-11-07T05:01:31.759Z,0
2016-11-07T05:02:12.452Z,0
2016-11-07T05:02:53.120Z,0
2016-11-07T05:03:33.780Z,0
2016-11-07T05:04:14.480Z,0
2016-11-07T05:04:55.155Z,0
2016-11-07T05:05:35.902Z,0
2016-11-07T05:06:16.531Z,0
2016-11-07T05:06:57.220Z,0
2016-11-07T05:07:37.869Z,0
2016-11-07T05:08:18.585Z,0
2016-11-07T05:08:59.293Z,0
2016-11-07T05:09:39.985Z,0
2016-11-07T05:10:20.676Z,0
2016-11-07T05:11:01.354Z,0
2016-11-07T05:11:42.033Z,0
2016-11-07T05:12:22.761Z,0
2016-11-07T05:13:03.447Z,0
2016-11-07T05:13:44.123Z,0
2016-11-07T05:14:24.774Z,0
2016-11-07T05:15:05.446Z,0
2016-11-07T05:15:46.162Z,0
2016-11-07T05:16:26.854Z,0
2016-11-07T05:17:07.514Z,0
2016-11-07T05:17:48.201Z,0
2016-11-07T05:18:28.874Z,0
2016-11-07T05:19:09.580Z,0
2016-11-07T05:19:50.280Z,0
2016-11-07T05:20:30.925Z,0
2016-11-07T05:21:11.605Z,0
2016-11-07T05:21:52.289Z,0
2016-11-07T05:22:32.979Z,0
2016-11-07T05:23:13.657Z,0
2016-11-07T05:23:54.330Z,0
2016-11-07T05:24:35.064Z,0
2016-11-07T05:25:15.739Z,0
2016-11-07T05:25:56.430Z,0
2016-11-07T05:26:37.081Z,0
2016-11-07T05:27:17.815Z,0
2016-11-07T05:27:58.495Z,0
2016-11-07T05:28:39.198Z,0
2016-11-07T05:29:19.869Z,0
2016-11-07T05:30:00.594Z,0
2016-11-07T05:30:41.238Z,0
2016-11-07T05:31:21.961Z,0
2016-11-07T05:32:02.649Z,0
2016-11-07T05:32:43.305Z,0
2016-11-07T05:33:24.011Z,0
2016-11-07T05:34:04.664Z,0
2016-11-07T05:34:45.378Z,0
2016-11-07T05:35:26.095Z,0
2016-11-07T05:36:06.779Z,0
2016-11-07T05:36:47.424Z,0
2016-11-07T05:37:28.113Z,0
2016-11-07T05:38:08.776Z,0
2016-11-07T05:38:49.465Z,0
2016-11-07T05:39:30.148Z,0
2016-11-07T05:40:10.829Z,0
2016-11-07T05:40:51.549Z,0
2016-11-07T05:41:32.249Z,0
2016-11-07T05:42:12.944Z,0
2016-11-07T05:42:53.621Z,0
2016-11-07T05:43:34.261Z,0
2016-11-07T05:44:14.951Z,0
2016-11-07T05:44:55.594Z,0
2016-11-07T05:45:36.303Z,0
2016-11-07T05:46:16.962Z,0
2016-11-07T05:46:57.680Z,0
2016-11-07T05:47:38.323Z,0
2016-11-07T05:48:19.046Z,0
2016-11-07T05:48:59.722Z,0
2016-11-07T05:49:40.360Z,0
2016-11-07T05:50:21.047Z,0
2016-11-07T05:51:01.727Z,0
2016-11-07T05:51:42.371Z,0
2016-11-07T05:52:23.076Z,0
2016-11-07T05:53:03.757Z,0
2016-11-07T05:53:44.471Z,0
2016-11-07T05:54:25.139Z,0
2016-11-07T05:55:05.809Z,0
2016-11-07T05:55:46.460Z,0
2016-11-07T05:56:27.151Z,0
2016-11-07T05:57:07.885Z,0
2016-11-07T05:57:48.525Z,0
2016-11-07T05:58:29.243Z,0
2016-11-07T05:59:09.933Z,0
2016-11-07T05:59:50.637Z,0
2016-11-07T06:00:31.320Z,0
2016-11-07T06:01:11.968Z,0
2016-11-07T06:01:52.651Z,0
2016-11-07T06:02:33.326Z,0
2016-11-07T06:03:13.991Z,0
2016-11-07T06:03:54.628Z,0
2016-11-07T06:04:35.273Z,0
2016-11-07T06:05:15.985Z,0
2016-11-07T06:05:56.648Z,0
2016-11-07T06:06:37.335Z,0
2016-11-07T06:07:18.004Z,0
2016-11-07T06:07:58.668Z,0
2016-11-07T06:08:39.360Z,0
2016-11-07T06:09:19.998Z,0
2016-11-07T06:10:00.679Z,0
2016-11-07T06:10:41.370Z,0
2016-11-07T06:11:22.091Z,0
2016-11-07T06:12:02.780Z,0
2016-11-07T06:12:43.488Z,0
2016-11-07T06:13:24.154Z,0
2016-11-07T06:14:04.843Z,0
2016-11-07T06:14:45.546Z,0
2016-11-07T06:15:26.220Z,0
2016-11-07T06:16:06.883Z,0
2016-11-07T06:16:47.560Z,0
2016-11-07T06:17:28.245Z,0
2016-11-07T06:18:08.909Z,0
2016-11-07T06:18:49.581Z,0
2016-11-07T06:19:30.292Z,0
2016-11-07T06:20:10.945Z,0
2016-11-07T06:20:51.636Z,0
2016-11-07T06:21:32.368Z,0
2016-11-07T06:22:13.066Z,0
2016-11-07T06:22:53.753Z,0
2016-11-07T06:23:34.434Z,0
2016-11-07T06:24:15.104Z,0
2016-11-07T06:24:55.826Z,0
2016-11-07T06:25:36.502Z,0
2016-11-07T06:26:17.196Z,0
2016-11-07T06:26:57.839Z,0
2016-11-07T06:27:38.495Z,0
2016-11-07T06:28:19.165Z,0
2016-11-07T06:28:59.824Z,0
2016-11-07T06:29:40.461Z,0
2016-11-07T06:30:21.129Z,0
2016-11-07T06:31:01.841Z,0
2016-11-07T06:31:42.547Z,4
2016-11-07T06:32:23.230Z,4
2016-11-07T06:33:03.885Z,4
2016-11-07T06:33:44.580Z,0
2016-11-07T06:34:25.283Z,0
2016-11-07T06:35:05.951Z,0
2016-11-07T06:35:46.579Z,0
2016-11-07T06:36:27.273Z,4
2016-11-07T06:37:07.932Z,4
2016-11-07T06:37:48.626Z,4
2016-11-07T06:38:29.322Z,4
2016-11-07T06:39:09.995Z,0
2016-11-07T06:39:50.667Z,4
2016-11-07T06:40:31.314Z,4
2016-11-07T06:41:12.047Z,4
2016-11-07T06:41:52.699Z,4
2016-11-07T06:42:33.433Z,4
2016-11-07T06:43:14.103Z,4
2016-11-07T06:43:54.790Z,8
2016-11-07T06:44:35.465Z,8
2016-11-07T06:45:16.169Z,4
2016-11-07T06:45:56.823Z,8
2016-11-07T06:46:37.524Z,8
2016-11-07T06:47:18.253Z,8
2016-11-07T06:47:58.975Z,8
2016-11-07T06:48:39.689Z,8
2016-11-07T06:49:20.343Z,8
2016-11-07T06:50:01.038Z,8
2016-11-07T06:50:41.705Z,8
2016-11-07T06:51:22.443Z,8
2016-11-07T06:52:03.102Z,12
2016-11-07T06:52:43.728Z,12
2016-11-07T06:53:24.407Z,12
2016-11-07T06:54:05.134Z,16
2016-11-07T06:54:45.786Z,16
2016-11-07T06:55:26.440Z,12
2016-11-07T06:56:07.095Z,16
2016-11-07T06:56:47.806Z,20
2016-11-07T06:57:28.489Z,16
2016-11-07T06:58:09.224Z,20
2016-11-07T06:58:49.895Z,16
2016-11-07T06:59:30.558Z,20
2016-11-07T07:00:11.254Z,20
2016-11-07T07:00:51.870Z,20
2016-11-07T07:01:32.584Z,20
2016-11-07T07:02:13.278Z,20
2016-11-07T07:02:53.972Z,24
2016-11-07T07:03:34.685Z,20
2016-11-07T07:04:15.386Z,24
2016-11-07T07:04:56.098Z,24
2016-11-07T07:05:36.788Z,504
2016-11-07T07:06:17.445Z,632
2016-11-07T07:06:58.113Z,672
2016-11-07T07:07:38.829Z,688
2016-11-07T07:08:19.527Z,700
2016-11-07T07:09:00.153Z,704
2016-11-07T07:09:40.806Z,704
2016-11-07T07:10:21.508Z,704
2016-11-07T07:11:02.154Z,704
2016-11-07T07:11:42.837Z,704
2016-11-07T07:12:23.523Z,704
2016-11-07T07:13:04.209Z,700
2016-11-07T07:13:44.949Z,700
2016-11-07T07:14:25.600Z,700
2016-11-07T07:15:06.240Z,700
2016-11-07T07:15:46.964Z,700
2016-11-07T07:16:27.657Z,700
2016-11-07T07:17:08.372Z,700
2016-11-07T07:17:49.066Z,700
2016-11-07T07:18:29.762Z,704
2016-11-07T07:19:10.498Z,704
2016-11-07T07:19:51.153Z,704
2016-11-07T07:20:31.851Z,704
2016-11-07T07:21:12.585Z,708
2016-11-07T07:21:53.319Z,708
2016-11-07T07:22:33.968Z,708
2016-11-07T07:23:14.664Z,708
2016-11-07T07:23:55.348Z,708
2016-11-07T07:24:36.005Z,712
2016-11-07T07:25:16.642Z,712
2016-11-07T07:25:57.373Z,708
2016-11-07T07:26:38.066Z,712
2016-11-07T07:27:18.785Z,712
2016-11-07T07:27:59.529Z,712
2016-11-07T07:28:40.945Z,712
2016-11-07T07:29:21.663Z,716
2016-11-07T07:30:02.369Z,716
2016-11-07T07:30:43.080Z,716
2016-11-07T07:31:23.812Z,716
2016-11-07T07:32:04.472Z,716
2016-11-07T07:32:45.183Z,716
2016-11-07T07:33:25.851Z,716
2016-11-07T07:34:06.530Z,720
2016-11-07T07:34:47.227Z,716
2016-11-07T07:35:27.936Z,716
2016-11-07T07:36:08.611Z,720
2016-11-07T07:36:49.281Z,720
2016-11-07T07:37:30.028Z,720
2016-11-07T07:38:10.703Z,720
2016-11-07T07:38:51.433Z,720
2016-11-07T07:39:32.143Z,724
2016-11-07T07:40:12.819Z,720
2016-11-07T07:40:53.492Z,724
2016-11-07T07:41:34.240Z,720
2016-11-07T07:42:14.934Z,724
2016-11-07T07:42:55.635Z,724
2016-11-07T07:43:36.453Z,724
2016-11-07T07:44:17.161Z,728
2016-11-07T07:44:57.906Z,724
2016-11-07T07:45:38.625Z,728
2016-11-07T07:46:19.444Z,728
2016-11-07T07:47:00.185Z,732
2016-11-07T07:47:40.883Z,728
2016-11-07T07:48:22.661Z,732
2016-11-07T07:49:03.463Z,732
2016-11-07T07:49:44.677Z,732
2016-11-07T07:50:25.447Z,732
2016-11-07T07:51:06.134Z,736
2016-11-07T07:51:46.833Z,736
2016-11-07T07:52:27.556Z,736
2016-11-07T07:53:08.227Z,736
2016-11-07T07:53:48.921Z,736
2016-11-07T07:54:29.606Z,736
2016-11-07T07:55:11.257Z,736
2016-11-07T07:55:51.996Z,736
2016-11-07T07:56:32.666Z,736
2016-11-07T07:57:13.407Z,736
2016-11-07T07:57:54.118Z,736
2016-11-07T07:58:34.826Z,736
2016-11-07T07:59:15.508Z,740
2016-11-07T07:59:56.215Z,736
2016-11-07T08:00:36.913Z,740
2016-11-07T08:01:17.564Z,736
2016-11-07T08:01:58.265Z,736
2016-11-07T08:02:38.969Z,740
2016-11-07T08:03:19.659Z,740
2016-11-07T08:04:00.333Z,740
2016-11-07T08:04:41.082Z,740
2016-11-07T08:05:21.761Z,740
2016-11-07T08:06:02.459Z,740
2016-11-07T08:06:43.170Z,740
2016-11-07T08:07:23.932Z,740
2016-11-07T08:08:04.601Z,740
2016-11-07T08:08:45.282Z,740
2016-11-07T08:09:25.964Z,740
2016-11-07T08:10:06.827Z,740
2016-11-07T08:10:47.623Z,744
2016-11-07T08:11:28.298Z,744
2016-11-07T08:12:09.043Z,740
2016-11-07T08:12:49.736Z,740
2016-11-07T08:13:30.414Z,740
2016-11-07T08:14:11.100Z,740
2016-11-07T08:14:51.867Z,740
2016-11-07T08:15:32.628Z,740
2016-11-07T08:16:13.284Z,740
2016-11-07T08:16:53.999Z,740
2016-11-07T08:17:34.715Z,744
2016-11-07T08:18:15.440Z,744
2016-11-07T08:18:56.160Z,744
2016-11-07T08:19:36.887Z,744
2016-11-07T08:20:17.590Z,744
2016-11-07T08:20:58.304Z,740
2016-11-07T08:21:38.993Z,740
2016-11-07T08:22:19.683Z,744
2016-11-07T08:23:00.420Z,744
2016-11-07T08:23:41.153Z,744
2016-11-07T08:24:21.839Z,744
2016-11-07T08:25:02.544Z,744
2016-11-07T08:25:43.284Z,744
2016-11-07T08:26:23.999Z,736
2016-11-07T08:27:04.702Z,740
2016-11-07T08:27:45.401Z,740
2016-11-07T08:28:26.077Z,740
2016-11-07T08:29:06.794Z,740
2016-11-07T08:29:47.494Z,740
2016-11-07T08:30:28.225Z,740
2016-11-07T08:31:08.889Z,740
2016-11-07T08:31:49.605Z,740
2016-11-07T08:32:30.323Z,740
2016-11-07T08:33:11.032Z,740
2016-11-07T08:33:51.698Z,740
2016-11-07T08:34:32.421Z,740
2016-11-07T08:35:13.163Z,744
2016-11-07T08:35:53.876Z,740
2016-11-07T08:36:34.569Z,744
2016-11-07T08:37:15.285Z,744
2016-11-07T08:37:56.009Z,744
2016-11-07T08:38:36.695Z,736
2016-11-07T08:39:17.432Z,736
2016-11-07T08:39:58.149Z,740
2016-11-07T08:40:38.827Z,740
2016-11-07T08:41:19.518Z,732
2016-11-07T08:42:00.203Z,736
2016-11-07T08:42:40.901Z,736
2016-11-07T08:43:21.623Z,740
2016-11-07T08:44:02.325Z,744
2016-11-07T08:44:43.074Z,748
2016-11-07T08:45:23.758Z,744
2016-11-07T08:46:05.306Z,744
2016-11-07T08:46:46.117Z,744
2016-11-07T08:47:26.817Z,744
2016-11-07T08:48:07.528Z,744
2016-11-07T08:48:48.243Z,744
2016-11-07T08:49:28.980Z,744
2016-11-07T08:50:09.628Z,744
2016-11-07T08:50:50.328Z,744
2016-11-07T08:51:31.056Z,744
2016-11-07T08:52:11.698Z,744
2016-11-07T08:52:52.403Z,744
2016-11-07T08:53:33.107Z,744
2016-11-07T08:54:13.861Z,744
2016-11-07T08:54:54.553Z,744
2016-11-07T08:55:35.262Z,744
2016-11-07T08:56:15.991Z,744
2016-11-07T08:56:56.679Z,748
2016-11-07T08:57:37.361Z,744
2016-11-07T08:58:18.123Z,744
2016-11-07T08:58:58.784Z,744
2016-11-07T08:59:39.473Z,744
2016-11-07T09:00:20.182Z,744
2016-11-07T09:01:00.906Z,744
2016-11-07T09:01:41.637Z,744
2016-11-07T09:02:22.327Z,744
2016-11-07T09:03:03.063Z,744
2016-11-07T09:03:43.748Z,744
2016-11-07T09:04:24.459Z,744
2016-11-07T09:05:05.826Z,744
2016-11-07T09:05:45.883Z,736
2016-11-07T09:06:26.562Z,744
2016-11-07T09:07:07.235Z,744
2016-11-07T09:07:48.048Z,744
2016-11-07T09:08:28.751Z,740
2016-11-07T09:09:09.461Z,744
2016-11-07T09:09:50.167Z,740
2016-11-07T09:10:30.871Z,744
2016-11-07T09:11:11.534Z,744
2016-11-07T09:11:52.261Z,744
2016-11-07T09:12:33.062Z,748
2016-11-07T09:13:13.751Z,752
2016-11-07T09:13:54.503Z,748
2016-11-07T09:14:35.226Z,744
2016-11-07T09:15:15.996Z,748
2016-11-07T09:15:56.682Z,744
2016-11-07T09:16:37.469Z,744
2016-11-07T09:17:18.240Z,748
2016-11-07T09:17:58.995Z,736
2016-11-07T09:18:39.739Z,744
2016-11-07T09:19:20.414Z,740
2016-11-07T09:20:01.105Z,744
2016-11-07T09:20:41.826Z,740
2016-11-07T09:21:22.585Z,740
2016-11-07T09:22:03.258Z,744
2016-11-07T09:22:43.934Z,740
2016-11-07T09:23:24.638Z,744
2016-11-07T09:24:05.334Z,744
2016-11-07T09:24:46.043Z,740
2016-11-07T09:25:26.773Z,740
2016-11-07T09:26:07.590Z,736
2016-11-07T09:26:48.340Z,740
2016-11-07T09:27:29.037Z,740
2016-11-07T09:28:09.730Z,744
2016-11-07T09:28:51.047Z,744
2016-11-07T09:29:31.775Z,748
2016-11-07T09:30:12.508Z,744
2016-11-07T09:30:53.256Z,744
2016-11-07T09:31:34.021Z,744
2016-11-07T09:32:14.648Z,744
2016-11-07T09:32:55.415Z,744
2016-11-07T09:33:36.186Z,740
2016-11-07T09:34:16.851Z,736
2016-11-07T09:34:57.543Z,744
2016-11-07T09:35:38.348Z,744
2016-11-07T09:36:19.084Z,736
2016-11-07T09:37:00.753Z,740
2016-11-07T09:37:41.486Z,744
2016-11-07T09:38:22.212Z,736
2016-11-07T09:39:03.016Z,744
2016-11-07T09:39:43.721Z,740
2016-11-07T09:40:24.431Z,744
2016-11-07T09:41:05.134Z,744
2016-11-07T09:41:45.809Z,740
2016-11-07T09:42:26.499Z,740
2016-11-07T09:43:07.193Z,744
2016-11-07T09:45:36.703Z,740
2016-11-07T09:46:17.373Z,740
2016-11-07T09:46:58.041Z,740
2016-11-07T09:47:38.789Z,740
2016-11-07T09:48:20.286Z,744
2016-11-07T09:49:01.075Z,744
2016-11-07T09:49:41.776Z,740
2016-11-07T09:50:22.491Z,744
2016-11-07T09:51:03.204Z,744